sensor_id;sensor_type;location;lat;lon;timestamp;P1;durP1;ratioP1;P2;durP2;ratioP2
38693;SDS011;24447;43.460;25.744;2023-09-19T00:01:42;5.55;;;2.78;;
38693;SDS011;24447;43.460;25.744;2023-09-19T00:04:11;3.05;;;1.95;;
38693;SDS011;24447;43.460;25.744;2023-09-19T00:06:37;3.88;;;2.35;;
38693;SDS011;24447;43.460;25.744;2023-09-19T00:09:04;4.75;;;1.95;;
38693;SDS011;24447;43.460;25.744;2023-09-19T00:11:35;3.65;;;1.65;;
38693;SDS011;24447;43.460;25.744;2023-09-19T00:14:01;9.02;;;2.05;;
38693;SDS011;24447;43.460;25.744;2023-09-19T00:16:27;4.80;;;2.33;;
38693;SDS011;24447;43.460;25.744;2023-09-19T00:18:53;3.42;;;2.20;;
38693;SDS011;24447;43.460;25.744;2023-09-19T00:21:20;4.32;;;2.05;;
38693;SDS011;24447;43.460;25.744;2023-09-19T00:23:46;4.43;;;2.38;;
38693;SDS011;24447;43.460;25.744;2023-09-19T00:26:12;3.30;;;2.25;;
38693;SDS011;24447;43.460;25.744;2023-09-19T00:28:38;3.90;;;2.47;;
38693;SDS011;24447;43.460;25.744;2023-09-19T00:31:04;2.42;;;2.05;;
38693;SDS011;24447;43.460;25.744;2023-09-19T00:33:33;6.18;;;3.47;;
38693;SDS011;24447;43.460;25.744;2023-09-19T00:35:59;3.95;;;2.28;;
38693;SDS011;24447;43.460;25.744;2023-09-19T00:38:29;6.30;;;2.40;;
38693;SDS011;24447;43.460;25.744;2023-09-19T00:40:55;3.63;;;2.30;;
38693;SDS011;24447;43.460;25.744;2023-09-19T00:43:24;4.10;;;2.45;;
38693;SDS011;24447;43.460;25.744;2023-09-19T00:45:53;4.93;;;2.88;;
38693;SDS011;24447;43.460;25.744;2023-09-19T00:48:23;3.47;;;1.92;;
38693;SDS011;24447;43.460;25.744;2023-09-19T00:50:52;9.05;;;2.42;;
38693;SDS011;24447;43.460;25.744;2023-09-19T00:53:20;1.92;;;1.70;;
38693;SDS011;24447;43.460;25.744;2023-09-19T00:55:48;5.55;;;2.17;;
38693;SDS011;24447;43.460;25.744;2023-09-19T00:58:16;5.68;;;2.75;;
38693;SDS011;24447;43.460;25.744;2023-09-19T01:00:43;2.92;;;1.85;;
38693;SDS011;24447;43.460;25.744;2023-09-19T01:03:10;5.68;;;2.38;;
38693;SDS011;24447;43.460;25.744;2023-09-19T01:05:38;5.57;;;2.55;;
38693;SDS011;24447;43.460;25.744;2023-09-19T01:08:04;2.42;;;1.45;;
38693;SDS011;24447;43.460;25.744;2023-09-19T01:10:31;4.10;;;2.00;;
38693;SDS011;24447;43.460;25.744;2023-09-19T01:13:13;4.10;;;1.95;;
38693;SDS011;24447;43.460;25.744;2023-09-19T01:15:50;3.15;;;1.73;;
38693;SDS011;24447;43.460;25.744;2023-09-19T01:18:24;7.45;;;2.97;;
38693;SDS011;24447;43.460;25.744;2023-09-19T01:26:21;5.03;;;2.17;;
38693;SDS011;24447;43.460;25.744;2023-09-19T01:29:17;5.18;;;2.00;;
38693;SDS011;24447;43.460;25.744;2023-09-19T01:31:49;1.33;;;1.27;;
38693;SDS011;24447;43.460;25.744;2023-09-19T01:34:19;5.30;;;2.67;;
38693;SDS011;24447;43.460;25.744;2023-09-19T01:36:45;3.42;;;2.03;;
38693;SDS011;24447;43.460;25.744;2023-09-19T01:39:11;4.05;;;2.05;;
38693;SDS011;24447;43.460;25.744;2023-09-19T01:47:46;6.78;;;3.33;;
38693;SDS011;24447;43.460;25.744;2023-09-19T01:53:53;3.08;;;1.85;;
38693;SDS011;24447;43.460;25.744;2023-09-19T01:55:53;3.45;;;2.33;;
38693;SDS011;24447;43.460;25.744;2023-09-19T02:01:29;5.80;;;2.55;;
38693;SDS011;24447;43.460;25.744;2023-09-19T02:03:55;3.60;;;1.92;;
38693;SDS011;24447;43.460;25.744;2023-09-19T02:06:21;2.55;;;2.05;;
38693;SDS011;24447;43.460;25.744;2023-09-19T02:08:47;4.30;;;2.17;;
38693;SDS011;24447;43.460;25.744;2023-09-19T02:11:15;4.65;;;2.65;;
38693;SDS011;24447;43.460;25.744;2023-09-19T02:13:41;8.05;;;3.33;;
38693;SDS011;24447;43.460;25.744;2023-09-19T02:16:07;5.05;;;2.58;;
38693;SDS011;24447;43.460;25.744;2023-09-19T02:18:35;3.75;;;2.03;;
38693;SDS011;24447;43.460;25.744;2023-09-19T02:21:02;5.97;;;2.47;;
38693;SDS011;24447;43.460;25.744;2023-09-19T02:23:29;2.22;;;1.80;;
38693;SDS011;24447;43.460;25.744;2023-09-19T02:25:55;3.47;;;2.03;;
38693;SDS011;24447;43.460;25.744;2023-09-19T02:28:25;3.97;;;1.83;;
38693;SDS011;24447;43.460;25.744;2023-09-19T02:31:00;3.95;;;2.63;;
38693;SDS011;24447;43.460;25.744;2023-09-19T02:33:27;4.18;;;2.40;;
38693;SDS011;24447;43.460;25.744;2023-09-19T02:35:57;7.10;;;2.25;;
38693;SDS011;24447;43.460;25.744;2023-09-19T02:38:23;6.63;;;3.15;;
38693;SDS011;24447;43.460;25.744;2023-09-19T02:40:51;6.38;;;2.83;;
38693;SDS011;24447;43.460;25.744;2023-09-19T02:43:22;5.07;;;1.90;;
38693;SDS011;24447;43.460;25.744;2023-09-19T02:45:49;4.57;;;2.80;;
38693;SDS011;24447;43.460;25.744;2023-09-19T02:48:16;3.17;;;2.28;;
38693;SDS011;24447;43.460;25.744;2023-09-19T02:50:43;6.88;;;2.95;;
38693;SDS011;24447;43.460;25.744;2023-09-19T02:53:09;1.75;;;1.58;;
38693;SDS011;24447;43.460;25.744;2023-09-19T02:55:39;4.35;;;3.00;;
38693;SDS011;24447;43.460;25.744;2023-09-19T02:58:08;7.63;;;3.40;;
38693;SDS011;24447;43.460;25.744;2023-09-19T03:00:36;6.53;;;2.38;;
38693;SDS011;24447;43.460;25.744;2023-09-19T03:03:03;5.55;;;2.38;;
38693;SDS011;24447;43.460;25.744;2023-09-19T03:05:31;2.55;;;1.73;;
38693;SDS011;24447;43.460;25.744;2023-09-19T03:08:02;5.05;;;2.83;;
38693;SDS011;24447;43.460;25.744;2023-09-19T03:10:31;4.50;;;2.63;;
38693;SDS011;24447;43.460;25.744;2023-09-19T03:12:57;3.97;;;2.80;;
38693;SDS011;24447;43.460;25.744;2023-09-19T03:15:25;3.20;;;1.85;;
38693;SDS011;24447;43.460;25.744;2023-09-19T03:17:51;4.90;;;2.83;;
38693;SDS011;24447;43.460;25.744;2023-09-19T03:20:19;3.90;;;2.55;;
38693;SDS011;24447;43.460;25.744;2023-09-19T03:22:46;3.25;;;2.13;;
38693;SDS011;24447;43.460;25.744;2023-09-19T03:25:13;5.80;;;3.17;;
38693;SDS011;24447;43.460;25.744;2023-09-19T03:27:39;6.63;;;3.08;;
38693;SDS011;24447;43.460;25.744;2023-09-19T03:30:06;3.58;;;2.45;;
38693;SDS011;24447;43.460;25.744;2023-09-19T03:32:45;4.25;;;2.05;;
38693;SDS011;24447;43.460;25.744;2023-09-19T03:35:11;7.22;;;3.10;;
38693;SDS011;24447;43.460;25.744;2023-09-19T03:37:39;5.18;;;3.15;;
38693;SDS011;24447;43.460;25.744;2023-09-19T03:40:07;4.97;;;2.53;;
38693;SDS011;24447;43.460;25.744;2023-09-19T03:42:37;5.28;;;2.35;;
38693;SDS011;24447;43.460;25.744;2023-09-19T03:45:04;5.57;;;2.38;;
38693;SDS011;24447;43.460;25.744;2023-09-19T03:47:31;4.45;;;2.10;;
38693;SDS011;24447;43.460;25.744;2023-09-19T03:49:56;5.95;;;2.40;;
38693;SDS011;24447;43.460;25.744;2023-09-19T03:52:22;2.20;;;1.67;;
38693;SDS011;24447;43.460;25.744;2023-09-19T03:54:50;3.20;;;1.95;;
38693;SDS011;24447;43.460;25.744;2023-09-19T03:57:15;4.38;;;2.85;;
38693;SDS011;24447;43.460;25.744;2023-09-19T03:59:45;4.63;;;2.95;;
38693;SDS011;24447;43.460;25.744;2023-09-19T04:02:12;2.60;;;1.75;;
38693;SDS011;24447;43.460;25.744;2023-09-19T04:04:47;6.70;;;2.88;;
38693;SDS011;24447;43.460;25.744;2023-09-19T04:07:13;2.95;;;1.85;;
38693;SDS011;24447;43.460;25.744;2023-09-19T04:09:40;8.18;;;2.53;;
38693;SDS011;24447;43.460;25.744;2023-09-19T04:12:06;7.13;;;3.13;;
38693;SDS011;24447;43.460;25.744;2023-09-19T04:14:36;4.30;;;2.10;;
38693;SDS011;24447;43.460;25.744;2023-09-19T04:17:03;4.38;;;2.38;;
38693;SDS011;24447;43.460;25.744;2023-09-19T04:19:30;6.13;;;2.80;;
38693;SDS011;24447;43.460;25.744;2023-09-19T04:21:56;5.15;;;2.35;;
38693;SDS011;24447;43.460;25.744;2023-09-19T04:24:22;2.88;;;1.83;;
38693;SDS011;24447;43.460;25.744;2023-09-19T04:26:48;8.55;;;3.50;;
38693;SDS011;24447;43.460;25.744;2023-09-19T04:29:14;3.75;;;1.80;;
38693;SDS011;24447;43.460;25.744;2023-09-19T04:31:40;5.47;;;2.60;;
38693;SDS011;24447;43.460;25.744;2023-09-19T04:34:09;8.45;;;3.20;;
38693;SDS011;24447;43.460;25.744;2023-09-19T04:36:35;8.05;;;3.47;;
38693;SDS011;24447;43.460;25.744;2023-09-19T04:39:02;6.10;;;2.20;;
38693;SDS011;24447;43.460;25.744;2023-09-19T04:41:32;6.53;;;2.83;;
38693;SDS011;24447;43.460;25.744;2023-09-19T04:43:58;5.93;;;2.65;;
38693;SDS011;24447;43.460;25.744;2023-09-19T04:46:25;5.35;;;2.28;;
38693;SDS011;24447;43.460;25.744;2023-09-19T04:48:51;5.60;;;3.08;;
38693;SDS011;24447;43.460;25.744;2023-09-19T04:51:17;5.72;;;3.03;;
38693;SDS011;24447;43.460;25.744;2023-09-19T04:53:44;7.28;;;2.88;;
38693;SDS011;24447;43.460;25.744;2023-09-19T04:56:09;4.22;;;2.00;;
38693;SDS011;24447;43.460;25.744;2023-09-19T04:58:35;6.00;;;2.80;;
38693;SDS011;24447;43.460;25.744;2023-09-19T05:01:01;4.75;;;2.03;;
38693;SDS011;24447;43.460;25.744;2023-09-19T05:03:28;7.45;;;2.40;;
38693;SDS011;24447;43.460;25.744;2023-09-19T05:05:54;6.18;;;2.88;;
38693;SDS011;24447;43.460;25.744;2023-09-19T05:08:20;6.35;;;2.83;;
38693;SDS011;24447;43.460;25.744;2023-09-19T05:10:47;5.13;;;2.65;;
38693;SDS011;24447;43.460;25.744;2023-09-19T05:13:14;2.95;;;2.35;;
38693;SDS011;24447;43.460;25.744;2023-09-19T05:15:40;2.47;;;1.88;;
38693;SDS011;24447;43.460;25.744;2023-09-19T05:18:06;4.25;;;1.67;;
38693;SDS011;24447;43.460;25.744;2023-09-19T05:20:32;3.90;;;2.20;;
38693;SDS011;24447;43.460;25.744;2023-09-19T05:23:03;5.03;;;2.15;;
38693;SDS011;24447;43.460;25.744;2023-09-19T05:25:37;3.75;;;2.38;;
38693;SDS011;24447;43.460;25.744;2023-09-19T05:28:08;3.58;;;2.28;;
38693;SDS011;24447;43.460;25.744;2023-09-19T05:30:36;4.53;;;2.78;;
38693;SDS011;24447;43.460;25.744;2023-09-19T05:33:08;6.28;;;2.55;;
38693;SDS011;24447;43.460;25.744;2023-09-19T05:35:34;4.97;;;1.98;;
38693;SDS011;24447;43.460;25.744;2023-09-19T05:38:04;5.90;;;2.45;;
38693;SDS011;24447;43.460;25.744;2023-09-19T05:40:33;5.45;;;2.47;;
38693;SDS011;24447;43.460;25.744;2023-09-19T05:43:00;4.93;;;2.15;;
38693;SDS011;24447;43.460;25.744;2023-09-19T05:45:28;3.70;;;2.30;;
38693;SDS011;24447;43.460;25.744;2023-09-19T05:47:55;3.35;;;1.77;;
38693;SDS011;24447;43.460;25.744;2023-09-19T05:50:29;4.82;;;2.40;;
38693;SDS011;24447;43.460;25.744;2023-09-19T05:52:57;3.78;;;2.15;;
38693;SDS011;24447;43.460;25.744;2023-09-19T05:55:23;5.50;;;2.33;;
38693;SDS011;24447;43.460;25.744;2023-09-19T05:57:50;2.13;;;1.73;;
38693;SDS011;24447;43.460;25.744;2023-09-19T06:00:17;6.00;;;2.33;;
38693;SDS011;24447;43.460;25.744;2023-09-19T06:02:49;1.98;;;1.33;;
38693;SDS011;24447;43.460;25.744;2023-09-19T06:05:18;1.77;;;1.35;;
38693;SDS011;24447;43.460;25.744;2023-09-19T06:07:44;3.30;;;1.80;;
38693;SDS011;24447;43.460;25.744;2023-09-19T06:10:10;4.57;;;2.67;;
38693;SDS011;24447;43.460;25.744;2023-09-19T06:12:40;5.60;;;3.05;;
38693;SDS011;24447;43.460;25.744;2023-09-19T06:15:10;5.18;;;2.13;;
38693;SDS011;24447;43.460;25.744;2023-09-19T06:17:51;2.08;;;1.40;;
38693;SDS011;24447;43.460;25.744;2023-09-19T06:22:48;3.05;;;1.50;;
38693;SDS011;24447;43.460;25.744;2023-09-19T06:25:15;3.85;;;1.77;;
38693;SDS011;24447;43.460;25.744;2023-09-19T06:27:45;5.07;;;2.17;;
38693;SDS011;24447;43.460;25.744;2023-09-19T06:30:14;3.55;;;1.77;;
38693;SDS011;24447;43.460;25.744;2023-09-19T06:32:42;6.65;;;2.38;;
38693;SDS011;24447;43.460;25.744;2023-09-19T06:35:11;2.08;;;1.35;;
38693;SDS011;24447;43.460;25.744;2023-09-19T06:37:39;5.50;;;1.80;;
38693;SDS011;24447;43.460;25.744;2023-09-19T06:42:42;2.10;;;1.90;;
38693;SDS011;24447;43.460;25.744;2023-09-19T06:45:13;2.60;;;1.52;;
38693;SDS011;24447;43.460;25.744;2023-09-19T06:47:43;1.33;;;1.25;;
38693;SDS011;24447;43.460;25.744;2023-09-19T06:50:10;3.33;;;2.00;;
38693;SDS011;24447;43.460;25.744;2023-09-19T06:52:42;5.10;;;1.80;;
38693;SDS011;24447;43.460;25.744;2023-09-19T06:55:08;3.13;;;1.65;;
38693;SDS011;24447;43.460;25.744;2023-09-19T06:57:41;4.20;;;1.58;;
38693;SDS011;24447;43.460;25.744;2023-09-19T07:00:10;5.22;;;2.55;;
38693;SDS011;24447;43.460;25.744;2023-09-19T07:02:58;3.33;;;1.60;;
38693;SDS011;24447;43.460;25.744;2023-09-19T07:05:36;4.10;;;2.03;;
38693;SDS011;24447;43.460;25.744;2023-09-19T07:08:04;4.38;;;2.28;;
38693;SDS011;24447;43.460;25.744;2023-09-19T07:10:31;3.53;;;2.05;;
38693;SDS011;24447;43.460;25.744;2023-09-19T07:13:04;1.13;;;1.05;;
38693;SDS011;24447;43.460;25.744;2023-09-19T07:15:34;2.90;;;1.17;;
38693;SDS011;24447;43.460;25.744;2023-09-19T07:18:03;2.65;;;1.75;;
38693;SDS011;24447;43.460;25.744;2023-09-19T07:20:30;2.22;;;1.95;;
38693;SDS011;24447;43.460;25.744;2023-09-19T07:22:57;1.75;;;1.52;;
38693;SDS011;24447;43.460;25.744;2023-09-19T07:25:27;1.65;;;1.55;;
38693;SDS011;24447;43.460;25.744;2023-09-19T07:27:57;4.55;;;2.10;;
38693;SDS011;24447;43.460;25.744;2023-09-19T07:30:24;1.45;;;1.35;;
38693;SDS011;24447;43.460;25.744;2023-09-19T07:32:51;3.60;;;1.90;;
38693;SDS011;24447;43.460;25.744;2023-09-19T07:35:17;2.72;;;1.85;;
38693;SDS011;24447;43.460;25.744;2023-09-19T07:37:45;2.42;;;1.80;;
38693;SDS011;24447;43.460;25.744;2023-09-19T07:40:16;3.42;;;1.48;;
38693;SDS011;24447;43.460;25.744;2023-09-19T07:42:42;3.83;;;1.63;;
38693;SDS011;24447;43.460;25.744;2023-09-19T07:45:09;7.47;;;2.40;;
38693;SDS011;24447;43.460;25.744;2023-09-19T07:47:40;2.17;;;1.75;;
38693;SDS011;24447;43.460;25.744;2023-09-19T07:50:09;1.45;;;1.27;;
38693;SDS011;24447;43.460;25.744;2023-09-19T07:52:36;1.90;;;1.05;;
38693;SDS011;24447;43.460;25.744;2023-09-19T07:55:04;1.70;;;1.60;;
38693;SDS011;24447;43.460;25.744;2023-09-19T07:57:35;2.85;;;1.45;;
38693;SDS011;24447;43.460;25.744;2023-09-19T08:00:02;2.03;;;1.35;;
38693;SDS011;24447;43.460;25.744;2023-09-19T08:02:39;2.13;;;1.67;;
38693;SDS011;24447;43.460;25.744;2023-09-19T08:05:06;1.50;;;1.40;;
38693;SDS011;24447;43.460;25.744;2023-09-19T08:07:39;2.72;;;1.48;;
38693;SDS011;24447;43.460;25.744;2023-09-19T08:10:06;2.65;;;1.52;;
38693;SDS011;24447;43.460;25.744;2023-09-19T08:12:35;3.60;;;1.67;;
38693;SDS011;24447;43.460;25.744;2023-09-19T08:15:02;1.10;;;0.90;;
38693;SDS011;24447;43.460;25.744;2023-09-19T08:17:28;2.35;;;1.20;;
38693;SDS011;24447;43.460;25.744;2023-09-19T08:19:54;1.92;;;1.65;;
38693;SDS011;24447;43.460;25.744;2023-09-19T08:22:20;1.48;;;1.25;;
38693;SDS011;24447;43.460;25.744;2023-09-19T08:24:46;2.30;;;1.60;;
38693;SDS011;24447;43.460;25.744;2023-09-19T08:27:12;2.03;;;1.83;;
38693;SDS011;24447;43.460;25.744;2023-09-19T08:29:38;2.95;;;1.67;;
38693;SDS011;24447;43.460;25.744;2023-09-19T08:32:04;2.47;;;1.20;;
38693;SDS011;24447;43.460;25.744;2023-09-19T08:34:30;2.78;;;1.70;;
38693;SDS011;24447;43.460;25.744;2023-09-19T08:36:59;5.90;;;1.70;;
38693;SDS011;24447;43.460;25.744;2023-09-19T08:39:25;4.50;;;1.40;;
38693;SDS011;24447;43.460;25.744;2023-09-19T08:42:00;3.05;;;1.50;;
38693;SDS011;24447;43.460;25.744;2023-09-19T08:44:27;2.55;;;1.35;;
38693;SDS011;24447;43.460;25.744;2023-09-19T08:47:01;1.70;;;1.42;;
38693;SDS011;24447;43.460;25.744;2023-09-19T08:49:53;1.40;;;1.30;;
38693;SDS011;24447;43.460;25.744;2023-09-19T08:52:27;2.53;;;1.48;;
38693;SDS011;24447;43.460;25.744;2023-09-19T08:55:05;1.73;;;1.57;;
38693;SDS011;24447;43.460;25.744;2023-09-19T08:57:33;1.15;;;1.08;;
38693;SDS011;24447;43.460;25.744;2023-09-19T09:00:01;2.05;;;1.60;;
38693;SDS011;24447;43.460;25.744;2023-09-19T09:02:35;1.30;;;1.25;;
38693;SDS011;24447;43.460;25.744;2023-09-19T09:05:03;2.38;;;1.55;;
38693;SDS011;24447;43.460;25.744;2023-09-19T09:07:31;5.63;;;2.03;;
38693;SDS011;24447;43.460;25.744;2023-09-19T09:09:59;1.75;;;1.20;;
38693;SDS011;24447;43.460;25.744;2023-09-19T09:12:27;1.55;;;1.40;;
38693;SDS011;24447;43.460;25.744;2023-09-19T09:14:55;1.83;;;1.52;;
38693;SDS011;24447;43.460;25.744;2023-09-19T09:17:22;2.60;;;1.80;;
38693;SDS011;24447;43.460;25.744;2023-09-19T09:19:51;1.25;;;1.15;;
38693;SDS011;24447;43.460;25.744;2023-09-19T09:22:18;2.03;;;1.80;;
38693;SDS011;24447;43.460;25.744;2023-09-19T09:27:26;2.20;;;1.38;;
38693;SDS011;24447;43.460;25.744;2023-09-19T09:29:52;2.13;;;1.00;;
38693;SDS011;24447;43.460;25.744;2023-09-19T09:34:47;0.77;;;0.77;;
38693;SDS011;24447;43.460;25.744;2023-09-19T09:37:15;5.25;;;1.92;;
38693;SDS011;24447;43.460;25.744;2023-09-19T09:42:37;2.88;;;1.80;;
38693;SDS011;24447;43.460;25.744;2023-09-19T09:47:47;1.65;;;0.90;;
38693;SDS011;24447;43.460;25.744;2023-09-19T09:50:28;2.33;;;0.80;;
38693;SDS011;24447;43.460;25.744;2023-09-19T09:53:28;1.77;;;0.88;;
38693;SDS011;24447;43.460;25.744;2023-09-19T09:56:06;1.02;;;1.02;;
38693;SDS011;24447;43.460;25.744;2023-09-19T10:01:14;1.48;;;1.35;;
38693;SDS011;24447;43.460;25.744;2023-09-19T10:03:41;1.67;;;1.13;;
38693;SDS011;24447;43.460;25.744;2023-09-19T10:06:14;2.80;;;1.42;;
38693;SDS011;24447;43.460;25.744;2023-09-19T10:09:04;1.58;;;1.10;;
38693;SDS011;24447;43.460;25.744;2023-09-19T10:11:48;1.35;;;1.25;;
38693;SDS011;24447;43.460;25.744;2023-09-19T10:14:22;1.90;;;1.40;;
38693;SDS011;24447;43.460;25.744;2023-09-19T10:16:51;1.33;;;1.25;;
38693;SDS011;24447;43.460;25.744;2023-09-19T10:19:29;1.95;;;1.40;;
38693;SDS011;24447;43.460;25.744;2023-09-19T10:21:58;1.48;;;1.20;;
38693;SDS011;24447;43.460;25.744;2023-09-19T10:24:25;1.65;;;1.55;;
38693;SDS011;24447;43.460;25.744;2023-09-19T10:26:52;2.28;;;1.40;;
38693;SDS011;24447;43.460;25.744;2023-09-19T10:29:19;1.25;;;1.17;;
38693;SDS011;24447;43.460;25.744;2023-09-19T10:31:47;1.27;;;1.15;;
38693;SDS011;24447;43.460;25.744;2023-09-19T10:34:14;3.42;;;1.30;;
38693;SDS011;24447;43.460;25.744;2023-09-19T10:36:42;2.90;;;1.40;;
38693;SDS011;24447;43.460;25.744;2023-09-19T10:41:37;2.22;;;1.60;;
38693;SDS011;24447;43.460;25.744;2023-09-19T10:44:04;2.63;;;1.33;;
38693;SDS011;24447;43.460;25.744;2023-09-19T10:46:31;3.33;;;1.25;;
38693;SDS011;24447;43.460;25.744;2023-09-19T10:49:01;2.20;;;1.38;;
38693;SDS011;24447;43.460;25.744;2023-09-19T10:51:33;3.38;;;1.38;;
38693;SDS011;24447;43.460;25.744;2023-09-19T10:54:06;2.63;;;1.35;;
38693;SDS011;24447;43.460;25.744;2023-09-19T10:56:48;4.05;;;1.27;;
38693;SDS011;24447;43.460;25.744;2023-09-19T10:59:20;1.40;;;1.23;;
38693;SDS011;24447;43.460;25.744;2023-09-19T11:01:55;1.33;;;0.95;;
38693;SDS011;24447;43.460;25.744;2023-09-19T11:04:32;1.38;;;1.25;;
38693;SDS011;24447;43.460;25.744;2023-09-19T11:09:50;2.38;;;1.30;;
38693;SDS011;24447;43.460;25.744;2023-09-19T11:14:57;2.42;;;1.33;;
38693;SDS011;24447;43.460;25.744;2023-09-19T11:30:41;2.05;;;0.90;;
38693;SDS011;24447;43.460;25.744;2023-09-19T11:33:15;2.00;;;1.77;;
38693;SDS011;24447;43.460;25.744;2023-09-19T11:43:52;1.40;;;1.00;;
38693;SDS011;24447;43.460;25.744;2023-09-19T11:46:24;1.25;;;1.00;;
38693;SDS011;24447;43.460;25.744;2023-09-19T11:48:50;2.75;;;1.38;;
38693;SDS011;24447;43.460;25.744;2023-09-19T11:53:52;1.33;;;1.00;;
38693;SDS011;24447;43.460;25.744;2023-09-19T11:56:22;1.90;;;1.35;;
38693;SDS011;24447;43.460;25.744;2023-09-19T11:58:51;1.70;;;1.13;;
38693;SDS011;24447;43.460;25.744;2023-09-19T12:01:31;2.28;;;1.42;;
38693;SDS011;24447;43.460;25.744;2023-09-19T12:03:59;1.48;;;1.10;;
38693;SDS011;24447;43.460;25.744;2023-09-19T12:06:27;1.60;;;1.10;;
38693;SDS011;24447;43.460;25.744;2023-09-19T12:09:00;2.92;;;1.63;;
38693;SDS011;24447;43.460;25.744;2023-09-19T12:11:29;2.85;;;1.75;;
38693;SDS011;24447;43.460;25.744;2023-09-19T12:13:58;2.25;;;1.17;;
38693;SDS011;24447;43.460;25.744;2023-09-19T12:16:25;2.65;;;1.50;;
38693;SDS011;24447;43.460;25.744;2023-09-19T12:18:55;3.05;;;1.50;;
38693;SDS011;24447;43.460;25.744;2023-09-19T12:21:31;1.15;;;0.93;;
38693;SDS011;24447;43.460;25.744;2023-09-19T12:26:40;2.95;;;1.48;;
38693;SDS011;24447;43.460;25.744;2023-09-19T12:29:13;2.92;;;1.55;;
38693;SDS011;24447;43.460;25.744;2023-09-19T12:31:55;1.30;;;1.20;;
38693;SDS011;24447;43.460;25.744;2023-09-19T12:34:31;2.67;;;1.30;;
38693;SDS011;24447;43.460;25.744;2023-09-19T12:37:07;2.38;;;0.57;;
38693;SDS011;24447;43.460;25.744;2023-09-19T12:39:44;1.45;;;0.88;;
38693;SDS011;24447;43.460;25.744;2023-09-19T12:42:20;0.63;;;0.63;;
38693;SDS011;24447;43.460;25.744;2023-09-19T12:44:48;2.72;;;1.50;;
38693;SDS011;24447;43.460;25.744;2023-09-19T12:47:21;0.98;;;0.70;;
38693;SDS011;24447;43.460;25.744;2023-09-19T12:50:06;2.07;;;1.10;;
38693;SDS011;24447;43.460;25.744;2023-09-19T12:52:40;2.00;;;1.52;;
38693;SDS011;24447;43.460;25.744;2023-09-19T12:55:16;1.33;;;1.23;;
38693;SDS011;24447;43.460;25.744;2023-09-19T12:57:56;3.55;;;1.52;;
38693;SDS011;24447;43.460;25.744;2023-09-19T13:00:37;2.83;;;1.40;;
38693;SDS011;24447;43.460;25.744;2023-09-19T13:03:13;2.00;;;1.33;;
38693;SDS011;24447;43.460;25.744;2023-09-19T13:05:57;2.13;;;1.17;;
38693;SDS011;24447;43.460;25.744;2023-09-19T13:08:29;2.58;;;1.27;;
38693;SDS011;24447;43.460;25.744;2023-09-19T13:11:07;2.30;;;1.45;;
38693;SDS011;24447;43.460;25.744;2023-09-19T13:16:30;2.05;;;1.00;;
38693;SDS011;24447;43.460;25.744;2023-09-19T13:18:57;1.48;;;1.30;;
38693;SDS011;24447;43.460;25.744;2023-09-19T13:21:30;3.17;;;1.00;;
38693;SDS011;24447;43.460;25.744;2023-09-19T13:24:21;2.83;;;1.38;;
38693;SDS011;24447;43.460;25.744;2023-09-19T13:26:52;2.88;;;1.55;;
38693;SDS011;24447;43.460;25.744;2023-09-19T13:29:19;2.35;;;1.30;;
38693;SDS011;24447;43.460;25.744;2023-09-19T13:31:46;4.65;;;1.08;;
38693;SDS011;24447;43.460;25.744;2023-09-19T13:34:15;2.45;;;1.20;;
38693;SDS011;24447;43.460;25.744;2023-09-19T13:36:42;1.83;;;1.17;;
38693;SDS011;24447;43.460;25.744;2023-09-19T13:39:08;1.48;;;1.00;;
38693;SDS011;24447;43.460;25.744;2023-09-19T13:41:35;2.22;;;1.20;;
38693;SDS011;24447;43.460;25.744;2023-09-19T13:44:04;1.90;;;1.50;;
38693;SDS011;24447;43.460;25.744;2023-09-19T13:46:30;3.25;;;1.20;;
38693;SDS011;24447;43.460;25.744;2023-09-19T13:48:59;1.97;;;1.40;;
38693;SDS011;24447;43.460;25.744;2023-09-19T13:51:28;3.33;;;1.70;;
38693;SDS011;24447;43.460;25.744;2023-09-19T13:53:58;2.35;;;1.42;;
38693;SDS011;24447;43.460;25.744;2023-09-19T13:56:27;2.43;;;1.83;;
38693;SDS011;24447;43.460;25.744;2023-09-19T13:58:53;2.15;;;1.40;;
38693;SDS011;24447;43.460;25.744;2023-09-19T14:01:19;5.13;;;2.03;;
38693;SDS011;24447;43.460;25.744;2023-09-19T14:03:46;2.45;;;2.17;;
38693;SDS011;24447;43.460;25.744;2023-09-19T14:06:14;2.25;;;1.80;;
38693;SDS011;24447;43.460;25.744;2023-09-19T14:08:40;2.95;;;1.60;;
38693;SDS011;24447;43.460;25.744;2023-09-19T14:11:07;2.65;;;1.60;;
38693;SDS011;24447;43.460;25.744;2023-09-19T14:13:33;3.90;;;2.00;;
38693;SDS011;24447;43.460;25.744;2023-09-19T14:16:03;3.70;;;2.15;;
38693;SDS011;24447;43.460;25.744;2023-09-19T14:18:33;5.32;;;2.75;;
38693;SDS011;24447;43.460;25.744;2023-09-19T14:21:05;4.45;;;2.05;;
38693;SDS011;24447;43.460;25.744;2023-09-19T14:23:36;4.53;;;3.00;;
38693;SDS011;24447;43.460;25.744;2023-09-19T14:26:06;3.42;;;2.30;;
38693;SDS011;24447;43.460;25.744;2023-09-19T14:28:32;4.60;;;2.30;;
38693;SDS011;24447;43.460;25.744;2023-09-19T14:31:08;3.17;;;2.13;;
38693;SDS011;24447;43.460;25.744;2023-09-19T14:33:35;3.78;;;2.78;;
38693;SDS011;24447;43.460;25.744;2023-09-19T14:36:04;3.60;;;1.75;;
38693;SDS011;24447;43.460;25.744;2023-09-19T14:38:32;3.65;;;1.85;;
38693;SDS011;24447;43.460;25.744;2023-09-19T14:41:00;3.97;;;2.10;;
38693;SDS011;24447;43.460;25.744;2023-09-19T14:43:29;5.53;;;2.50;;
38693;SDS011;24447;43.460;25.744;2023-09-19T14:45:56;7.32;;;2.05;;
38693;SDS011;24447;43.460;25.744;2023-09-19T14:48:22;4.85;;;2.40;;
38693;SDS011;24447;43.460;25.744;2023-09-19T14:50:51;5.97;;;2.75;;
38693;SDS011;24447;43.460;25.744;2023-09-19T14:53:17;2.92;;;1.85;;
38693;SDS011;24447;43.460;25.744;2023-09-19T14:55:43;6.75;;;2.83;;
38693;SDS011;24447;43.460;25.744;2023-09-19T14:58:12;6.13;;;2.22;;
38693;SDS011;24447;43.460;25.744;2023-09-19T15:00:38;2.42;;;1.88;;
38693;SDS011;24447;43.460;25.744;2023-09-19T15:03:04;4.05;;;2.00;;
38693;SDS011;24447;43.460;25.744;2023-09-19T15:05:31;3.40;;;1.92;;
38693;SDS011;24447;43.460;25.744;2023-09-19T15:07:57;6.35;;;2.00;;
38693;SDS011;24447;43.460;25.744;2023-09-19T15:10:23;4.22;;;2.17;;
38693;SDS011;24447;43.460;25.744;2023-09-19T15:47:40;13.82;;;3.53;;
38693;SDS011;24447;43.460;25.744;2023-09-19T15:50:07;10.68;;;3.35;;
38693;SDS011;24447;43.460;25.744;2023-09-19T15:52:40;12.82;;;3.92;;
38693;SDS011;24447;43.460;25.744;2023-09-19T15:55:07;8.55;;;4.40;;
38693;SDS011;24447;43.460;25.744;2023-09-19T15:57:37;4.43;;;2.63;;
38693;SDS011;24447;43.460;25.744;2023-09-19T16:00:03;8.37;;;2.30;;
38693;SDS011;24447;43.460;25.744;2023-09-19T16:02:35;16.00;;;3.38;;
38693;SDS011;24447;43.460;25.744;2023-09-19T16:05:02;3.40;;;2.58;;
38693;SDS011;24447;43.460;25.744;2023-09-19T16:07:31;5.70;;;2.72;;
38693;SDS011;24447;43.460;25.744;2023-09-19T16:09:58;6.82;;;2.65;;
38693;SDS011;24447;43.460;25.744;2023-09-19T16:12:25;8.75;;;3.38;;
38693;SDS011;24447;43.460;25.744;2023-09-19T16:14:51;5.35;;;2.72;;
38693;SDS011;24447;43.460;25.744;2023-09-19T16:17:17;3.33;;;2.10;;
38693;SDS011;24447;43.460;25.744;2023-09-19T16:19:43;3.90;;;1.77;;
38693;SDS011;24447;43.460;25.744;2023-09-19T16:22:09;4.25;;;2.05;;
38693;SDS011;24447;43.460;25.744;2023-09-19T16:24:35;4.18;;;2.25;;
38693;SDS011;24447;43.460;25.744;2023-09-19T16:27:01;4.50;;;2.00;;
38693;SDS011;24447;43.460;25.744;2023-09-19T16:29:29;5.30;;;2.72;;
38693;SDS011;24447;43.460;25.744;2023-09-19T16:31:54;5.00;;;2.47;;
38693;SDS011;24447;43.460;25.744;2023-09-19T16:34:20;5.53;;;2.38;;